sensor_id;sensor_type;location;lat;lon;timestamp;pressure;altitude;pressure_sealevel;temperature;humidity
77975;BME280;67164;51.202;0.278;2023-06-26T00:00:24;101292.14;;;26.91;37.08
77975;BME280;67164;51.202;0.278;2023-06-26T00:02:50;101294.08;;;26.96;36.84
77975;BME280;67164;51.202;0.278;2023-06-26T00:05:16;101301.83;;;26.84;36.97
77975;BME280;67164;51.202;0.278;2023-06-26T00:07:41;101308.77;;;27.15;36.83
77975;BME280;67164;51.202;0.278;2023-06-26T00:10:07;101309.94;;;26.95;36.71
77975;BME280;67164;51.202;0.278;2023-06-26T00:12:33;101312.06;;;27.09;36.90
77975;BME280;67164;51.202;0.278;2023-06-26T00:14:59;101319.51;;;26.59;36.84
77975;BME280;67164;51.202;0.278;2023-06-26T00:17:24;101319.30;;;26.77;36.80
77975;BME280;67164;51.202;0.278;2023-06-26T00:19:50;101320.54;;;26.68;36.83
77975;BME280;67164;51.202;0.278;2023-06-26T00:22:16;101316.61;;;26.96;36.70
77975;BME280;67164;51.202;0.278;2023-06-26T00:24:42;101316.60;;;26.78;36.58
77975;BME280;67164;51.202;0.278;2023-06-26T00:27:08;101318.78;;;27.03;36.65
77975;BME280;67164;51.202;0.278;2023-06-26T00:29:34;101319.23;;;26.77;36.62
77975;BME280;67164;51.202;0.278;2023-06-26T00:31:59;101320.84;;;26.75;36.71
77975;BME280;67164;51.202;0.278;2023-06-26T00:34:25;101323.51;;;26.81;36.67
77975;BME280;67164;51.202;0.278;2023-06-26T00:36:51;101322.57;;;26.90;36.62
77975;BME280;67164;51.202;0.278;2023-06-26T00:39:16;101326.00;;;26.93;36.64
77975;BME280;67164;51.202;0.278;2023-06-26T00:41:42;101328.87;;;26.72;36.52
77975;BME280;67164;51.202;0.278;2023-06-26T00:44:08;101330.56;;;26.90;36.58
77975;BME280;67164;51.202;0.278;2023-06-26T00:46:34;101331.27;;;26.68;36.51
77975;BME280;67164;51.202;0.278;2023-06-26T00:49:00;101333.28;;;26.61;36.51
77975;BME280;67164;51.202;0.278;2023-06-26T00:51:25;101332.93;;;26.74;36.32
77975;BME280;67164;51.202;0.278;2023-06-26T00:53:51;101338.36;;;26.68;36.44
77975;BME280;67164;51.202;0.278;2023-06-26T00:56:17;101336.80;;;26.82;36.59
77975;BME280;67164;51.202;0.278;2023-06-26T00:58:42;101340.05;;;26.69;36.45
77975;BME280;67164;51.202;0.278;2023-06-26T01:01:08;101337.45;;;26.56;36.57
77975;BME280;67164;51.202;0.278;2023-06-26T01:03:34;101338.57;;;26.40;36.22
77975;BME280;67164;51.202;0.278;2023-06-26T01:06:00;101336.63;;;26.80;36.37
77975;BME280;67164;51.202;0.278;2023-06-26T01:08:26;101341.62;;;26.51;36.35
77975;BME280;67164;51.202;0.278;2023-06-26T01:10:51;101344.71;;;26.64;36.19
77975;BME280;67164;51.202;0.278;2023-06-26T01:13:17;101345.11;;;26.33;36.23
77975;BME280;67164;51.202;0.278;2023-06-26T01:15:43;101347.49;;;26.39;36.23
77975;BME280;67164;51.202;0.278;2023-06-26T01:18:08;101352.87;;;26.80;36.14
77975;BME280;67164;51.202;0.278;2023-06-26T01:20:37;101353.97;;;26.43;36.25
77975;BME280;67164;51.202;0.278;2023-06-26T01:23:07;101356.74;;;26.39;36.27
77975;BME280;67164;51.202;0.278;2023-06-26T01:25:35;101359.83;;;26.75;36.19
77975;BME280;67164;51.202;0.278;2023-06-26T01:27:54;101362.98;;;26.76;36.34
77975;BME280;67164;51.202;0.278;2023-06-26T01:30:19;101365.92;;;26.75;36.22
77975;BME280;67164;51.202;0.278;2023-06-26T01:32:44;101370.69;;;26.64;36.38
77975;BME280;67164;51.202;0.278;2023-06-26T01:35:09;101374.51;;;26.59;36.25
77975;BME280;67164;51.202;0.278;2023-06-26T01:37:35;101377.09;;;26.27;36.38
77975;BME280;67164;51.202;0.278;2023-06-26T01:40:00;101377.42;;;26.64;36.16
77975;BME280;67164;51.202;0.278;2023-06-26T01:42:27;101387.88;;;26.47;36.40
77975;BME280;67164;51.202;0.278;2023-06-26T01:44:53;101386.88;;;26.85;36.10
77975;BME280;67164;51.202;0.278;2023-06-26T01:47:21;101386.50;;;26.78;36.16
77975;BME280;67164;51.202;0.278;2023-06-26T01:49:48;101384.93;;;26.31;36.23
77975;BME280;67164;51.202;0.278;2023-06-26T01:52:16;101389.52;;;26.25;36.24
77975;BME280;67164;51.202;0.278;2023-06-26T01:54:41;101388.91;;;26.19;36.26
77975;BME280;67164;51.202;0.278;2023-06-26T01:57:01;101388.95;;;26.28;36.38
77975;BME280;67164;51.202;0.278;2023-06-26T01:59:28;101391.48;;;26.09;36.32
77975;BME280;67164;51.202;0.278;2023-06-26T02:01:52;101390.44;;;26.38;36.19
77975;BME280;67164;51.202;0.278;2023-06-26T02:04:18;101389.17;;;26.56;36.22
77975;BME280;67164;51.202;0.278;2023-06-26T02:06:44;101388.41;;;26.09;36.21
77975;BME280;67164;51.202;0.278;2023-06-26T02:09:10;101390.48;;;26.38;36.20
77975;BME280;67164;51.202;0.278;2023-06-26T02:11:35;101390.01;;;26.60;36.28
77975;BME280;67164;51.202;0.278;2023-06-26T02:14:01;101393.56;;;26.39;36.25
77975;BME280;67164;51.202;0.278;2023-06-26T02:16:27;101394.25;;;26.28;36.40
77975;BME280;67164;51.202;0.278;2023-06-26T02:18:53;101400.10;;;26.38;36.18
77975;BME280;67164;51.202;0.278;2023-06-26T02:21:18;101399.18;;;26.48;36.33
77975;BME280;67164;51.202;0.278;2023-06-26T02:23:44;101399.45;;;26.32;36.19
77975;BME280;67164;51.202;0.278;2023-06-26T02:26:10;101399.92;;;26.55;36.25
77975;BME280;67164;51.202;0.278;2023-06-26T02:28:36;101402.78;;;25.98;36.39
77975;BME280;67164;51.202;0.278;2023-06-26T02:31:02;101405.92;;;26.14;36.44
77975;BME280;67164;51.202;0.278;2023-06-26T02:33:28;101408.65;;;26.08;36.51
77975;BME280;67164;51.202;0.278;2023-06-26T02:35:53;101411.08;;;26.05;36.29
77975;BME280;67164;51.202;0.278;2023-06-26T02:38:19;101412.52;;;26.07;36.57
77975;BME280;67164;51.202;0.278;2023-06-26T02:40:45;101418.06;;;26.48;36.41
77975;BME280;67164;51.202;0.278;2023-06-26T02:43:10;101416.23;;;26.67;36.17
77975;BME280;67164;51.202;0.278;2023-06-26T02:45:36;101414.94;;;26.59;36.36
77975;BME280;67164;51.202;0.278;2023-06-26T02:48:02;101416.91;;;26.22;36.44
77975;BME280;67164;51.202;0.278;2023-06-26T02:50:28;101420.53;;;26.32;36.28
77975;BME280;67164;51.202;0.278;2023-06-26T02:52:54;101432.21;;;26.49;36.41
77975;BME280;67164;51.202;0.278;2023-06-26T02:55:19;101435.71;;;26.48;36.34
77975;BME280;67164;51.202;0.278;2023-06-26T02:57:45;101438.29;;;26.38;36.50
77975;BME280;67164;51.202;0.278;2023-06-26T03:00:12;101436.80;;;26.22;36.36
77975;BME280;67164;51.202;0.278;2023-06-26T03:02:37;101435.59;;;26.25;36.27
77975;BME280;67164;51.202;0.278;2023-06-26T03:05:03;101434.77;;;26.28;36.60
77975;BME280;67164;51.202;0.278;2023-06-26T03:07:28;101436.21;;;26.14;36.46
77975;BME280;67164;51.202;0.278;2023-06-26T03:09:54;101437.70;;;26.18;36.63
77975;BME280;67164;51.202;0.278;2023-06-26T03:12:20;101438.19;;;26.36;36.48
77975;BME280;67164;51.202;0.278;2023-06-26T03:14:45;101438.22;;;26.04;36.60
77975;BME280;67164;51.202;0.278;2023-06-26T03:17:11;101440.41;;;26.52;36.38
77975;BME280;67164;51.202;0.278;2023-06-26T03:19:37;101441.76;;;26.22;36.32
77975;BME280;67164;51.202;0.278;2023-06-26T03:22:03;101435.65;;;26.00;36.62
77975;BME280;67164;51.202;0.278;2023-06-26T03:24:29;101437.46;;;26.07;36.54
77975;BME280;67164;51.202;0.278;2023-06-26T03:26:54;101436.92;;;26.40;36.48
77975;BME280;67164;51.202;0.278;2023-06-26T03:29:20;101431.70;;;25.90;36.74
77975;BME280;67164;51.202;0.278;2023-06-26T03:31:45;101437.56;;;26.23;36.70
77975;BME280;67164;51.202;0.278;2023-06-26T03:34:11;101441.79;;;25.94;36.84
77975;BME280;67164;51.202;0.278;2023-06-26T03:36:36;101443.56;;;25.96;37.02
77975;BME280;67164;51.202;0.278;2023-06-26T03:39:02;101446.63;;;25.85;36.98
77975;BME280;67164;51.202;0.278;2023-06-26T03:41:28;101449.17;;;25.43;37.25
77975;BME280;67164;51.202;0.278;2023-06-26T03:43:54;101453.04;;;25.88;37.00
77975;BME280;67164;51.202;0.278;2023-06-26T03:46:19;101451.58;;;26.19;36.96
77975;BME280;67164;51.202;0.278;2023-06-26T03:48:45;101455.55;;;26.07;37.09
77975;BME280;67164;51.202;0.278;2023-06-26T03:51:11;101458.62;;;26.12;36.99
77975;BME280;67164;51.202;0.278;2023-06-26T03:53:37;101467.27;;;26.20;36.97
77975;BME280;67164;51.202;0.278;2023-06-26T03:56:03;101472.35;;;26.09;36.71
77975;BME280;67164;51.202;0.278;2023-06-26T03:58:28;101477.92;;;25.68;37.28
77975;BME280;67164;51.202;0.278;2023-06-26T04:00:54;101477.46;;;26.15;36.98
77975;BME280;67164;51.202;0.278;2023-06-26T04:03:20;101477.73;;;25.81;37.44
77975;BME280;67164;51.202;0.278;2023-06-26T04:05:46;101473.25;;;25.93;37.37
77975;BME280;67164;51.202;0.278;2023-06-26T04:08:12;101469.02;;;25.94;37.40
77975;BME280;67164;51.202;0.278;2023-06-26T04:10:37;101466.77;;;25.81;37.44
77975;BME280;67164;51.202;0.278;2023-06-26T04:13:03;101468.76;;;25.69;37.68
77975;BME280;67164;51.202;0.278;2023-06-26T04:15:28;101473.01;;;25.45;37.70
77975;BME280;67164;51.202;0.278;2023-06-26T04:17:54;101480.12;;;25.97;37.37
77975;BME280;67164;51.202;0.278;2023-06-26T04:20:20;101486.59;;;25.64;37.47
77975;BME280;67164;51.202;0.278;2023-06-26T04:22:46;101480.79;;;25.84;37.46
77975;BME280;67164;51.202;0.278;2023-06-26T04:25:11;101482.35;;;25.74;37.60
77975;BME280;67164;51.202;0.278;2023-06-26T04:27:37;101486.22;;;25.78;37.53
77975;BME280;67164;51.202;0.278;2023-06-26T04:30:04;101489.18;;;25.72;37.63
77975;BME280;67164;51.202;0.278;2023-06-26T04:32:29;101494.48;;;25.45;37.73
77975;BME280;67164;51.202;0.278;2023-06-26T04:34:55;101505.58;;;25.71;37.70
77975;BME280;67164;51.202;0.278;2023-06-26T04:37:21;101516.80;;;25.80;37.59
77975;BME280;67164;51.202;0.278;2023-06-26T04:39:46;101509.32;;;25.92;37.44
77975;BME280;67164;51.202;0.278;2023-06-26T04:42:12;101506.46;;;25.64;37.76
77975;BME280;67164;51.202;0.278;2023-06-26T04:44:38;101509.04;;;25.62;37.79
77975;BME280;67164;51.202;0.278;2023-06-26T04:47:04;101512.74;;;25.98;37.70
77975;BME280;67164;51.202;0.278;2023-06-26T04:49:29;101514.11;;;25.34;37.86
77975;BME280;67164;51.202;0.278;2023-06-26T04:51:56;101516.69;;;25.47;38.04
77975;BME280;67164;51.202;0.278;2023-06-26T04:54:21;101515.94;;;25.29;38.02
77975;BME280;67164;51.202;0.278;2023-06-26T04:56:47;101512.22;;;25.74;37.80
77975;BME280;67164;51.202;0.278;2023-06-26T04:59:13;101512.36;;;25.44;38.13
77975;BME280;67164;51.202;0.278;2023-06-26T05:01:38;101517.68;;;25.46;38.08
77975;BME280;67164;51.202;0.278;2023-06-26T05:04:04;101522.75;;;25.58;38.04
77975;BME280;67164;51.202;0.278;2023-06-26T05:06:30;101525.43;;;25.63;38.05
77975;BME280;67164;51.202;0.278;2023-06-26T05:08:56;101528.48;;;25.50;38.17
77975;BME280;67164;51.202;0.278;2023-06-26T05:11:21;101527.99;;;25.38;38.41
77975;BME280;67164;51.202;0.278;2023-06-26T05:13:52;101531.24;;;25.67;38.10
77975;BME280;67164;51.202;0.278;2023-06-26T05:16:13;101533.42;;;25.47;38.34
77975;BME280;67164;51.202;0.278;2023-06-26T05:18:39;101536.15;;;25.42;38.47
77975;BME280;67164;51.202;0.278;2023-06-26T05:21:05;101535.58;;;25.33;38.63
77975;BME280;67164;51.202;0.278;2023-06-26T05:23:31;101530.78;;;25.40;38.58
77975;BME280;67164;51.202;0.278;2023-06-26T05:25:56;101529.24;;;25.45;38.56
77975;BME280;67164;51.202;0.278;2023-06-26T05:28:22;101528.77;;;25.42;38.56
77975;BME280;67164;51.202;0.278;2023-06-26T05:30:48;101530.89;;;25.40;38.64
77975;BME280;67164;51.202;0.278;2023-06-26T05:33:14;101530.93;;;25.68;38.61
77975;BME280;67164;51.202;0.278;2023-06-26T05:35:39;101532.17;;;25.55;38.48
77975;BME280;67164;51.202;0.278;2023-06-26T05:38:05;101539.00;;;25.59;38.58
77975;BME280;67164;51.202;0.278;2023-06-26T05:40:31;101543.15;;;25.58;38.54
77975;BME280;67164;51.202;0.278;2023-06-26T05:42:57;101540.97;;;25.44;38.80
77975;BME280;67164;51.202;0.278;2023-06-26T05:45:22;101545.58;;;25.43;38.74
77975;BME280;67164;51.202;0.278;2023-06-26T05:47:48;101548.19;;;25.50;38.78
77975;BME280;67164;51.202;0.278;2023-06-26T05:50:17;101549.39;;;26.07;37.98
77975;BME280;67164;51.202;0.278;2023-06-26T05:52:40;101542.97;;;25.83;38.44
77975;BME280;67164;51.202;0.278;2023-06-26T05:55:06;101543.26;;;26.18;38.11
77975;BME280;67164;51.202;0.278;2023-06-26T05:57:32;101546.02;;;25.90;38.28
77975;BME280;67164;51.202;0.278;2023-06-26T05:59:57;101551.90;;;25.68;38.91
77975;BME280;67164;51.202;0.278;2023-06-26T06:02:23;101550.49;;;25.98;38.64
77975;BME280;67164;51.202;0.278;2023-06-26T06:04:49;101551.13;;;25.84;38.89
77975;BME280;67164;51.202;0.278;2023-06-26T06:07:15;101551.65;;;25.91;38.90
77975;BME280;67164;51.202;0.278;2023-06-26T06:09:45;101550.21;;;25.79;38.81
77975;BME280;67164;51.202;0.278;2023-06-26T06:12:07;101549.32;;;25.65;40.56
77975;BME280;67164;51.202;0.278;2023-06-26T06:14:32;101548.98;;;25.85;40.48
77975;BME280;67164;51.202;0.278;2023-06-26T06:16:57;101556.94;;;25.98;39.66
77975;BME280;67164;51.202;0.278;2023-06-26T06:19:23;101554.42;;;25.64;40.66
77975;BME280;67164;51.202;0.278;2023-06-26T06:21:49;101556.17;;;26.18;40.26
77975;BME280;67164;51.202;0.278;2023-06-26T06:24:20;101562.23;;;25.86;40.73
77975;BME280;67164;51.202;0.278;2023-06-26T06:26:40;101559.52;;;26.34;40.27
77975;BME280;67164;51.202;0.278;2023-06-26T06:29:07;101560.15;;;26.48;40.18
77975;BME280;67164;51.202;0.278;2023-06-26T06:31:32;101560.77;;;26.18;40.52
77975;BME280;67164;51.202;0.278;2023-06-26T06:33:58;101568.16;;;26.10;40.74
77975;BME280;67164;51.202;0.278;2023-06-26T06:36:28;101571.60;;;25.62;40.91
77975;BME280;67164;51.202;0.278;2023-06-26T06:38:49;101574.01;;;25.95;40.94
77975;BME280;67164;51.202;0.278;2023-06-26T06:41:15;101578.54;;;26.19;40.58
77975;BME280;67164;51.202;0.278;2023-06-26T06:43:41;101580.94;;;26.08;40.52
77975;BME280;67164;51.202;0.278;2023-06-26T06:46:06;101582.36;;;26.32;40.47
77975;BME280;67164;51.202;0.278;2023-06-26T06:48:32;101580.76;;;26.11;40.36
77975;BME280;67164;51.202;0.278;2023-06-26T06:50:58;101579.99;;;25.81;40.60
77975;BME280;67164;51.202;0.278;2023-06-26T06:53:24;101579.71;;;25.84;40.76
77975;BME280;67164;51.202;0.278;2023-06-26T06:55:50;101576.58;;;25.83;40.43
77975;BME280;67164;51.202;0.278;2023-06-26T06:58:16;101582.73;;;26.15;40.18
77975;BME280;67164;51.202;0.278;2023-06-26T07:00:41;101593.07;;;25.72;40.54
77975;BME280;67164;51.202;0.278;2023-06-26T07:03:07;101596.38;;;26.24;40.38
77975;BME280;67164;51.202;0.278;2023-06-26T07:05:33;101602.63;;;26.15;40.56
77975;BME280;67164;51.202;0.278;2023-06-26T07:07:59;101603.47;;;26.29;40.50
77975;BME280;67164;51.202;0.278;2023-06-26T07:10:25;101599.15;;;26.24;40.28
77975;BME280;67164;51.202;0.278;2023-06-26T07:12:50;101606.10;;;25.94;40.67
77975;BME280;67164;51.202;0.278;2023-06-26T07:15:17;101603.98;;;25.97;41.63
77975;BME280;67164;51.202;0.278;2023-06-26T07:17:42;101594.49;;;26.02;41.34
77975;BME280;67164;51.202;0.278;2023-06-26T07:20:08;101600.13;;;25.41;42.71
77975;BME280;67164;51.202;0.278;2023-06-26T07:22:33;101607.39;;;26.02;42.35
77975;BME280;67164;51.202;0.278;2023-06-26T07:24:59;101609.93;;;26.18;42.14
77975;BME280;67164;51.202;0.278;2023-06-26T07:27:25;101616.62;;;26.07;42.51
77975;BME280;67164;51.202;0.278;2023-06-26T07:29:51;101611.26;;;25.99;42.35
77975;BME280;67164;51.202;0.278;2023-06-26T07:32:16;101610.22;;;25.77;42.69
77975;BME280;67164;51.202;0.278;2023-06-26T07:34:42;101610.90;;;25.67;42.65
77975;BME280;67164;51.202;0.278;2023-06-26T07:37:08;101617.16;;;25.73;42.90
77975;BME280;67164;51.202;0.278;2023-06-26T07:39:34;101619.70;;;25.95;42.47
77975;BME280;67164;51.202;0.278;2023-06-26T07:42:00;101622.46;;;25.80;42.06
77975;BME280;67164;51.202;0.278;2023-06-26T07:44:26;101618.06;;;25.89;42.37
77975;BME280;67164;51.202;0.278;2023-06-26T07:46:51;101611.19;;;25.92;42.03
77975;BME280;67164;51.202;0.278;2023-06-26T07:49:17;101612.23;;;25.73;42.36
77975;BME280;67164;51.202;0.278;2023-06-26T07:51:43;101616.92;;;26.04;42.34
77975;BME280;67164;51.202;0.278;2023-06-26T07:54:09;101614.61;;;26.13;42.55
77975;BME280;67164;51.202;0.278;2023-06-26T07:59:00;101618.12;;;26.16;42.59
77975;BME280;67164;51.202;0.278;2023-06-26T08:01:26;101620.07;;;26.11;41.84
77975;BME280;67164;51.202;0.278;2023-06-26T08:03:52;101622.58;;;26.06;41.66
77975;BME280;67164;51.202;0.278;2023-06-26T08:06:17;101622.25;;;25.68;42.22
77975;BME280;67164;51.202;0.278;2023-06-26T08:08:43;101618.93;;;25.63;42.52
77975;BME280;67164;51.202;0.278;2023-06-26T08:11:10;101615.87;;;25.57;43.10
77975;BME280;67164;51.202;0.278;2023-06-26T08:13:35;101626.16;;;25.52;43.48
77975;BME280;67164;51.202;0.278;2023-06-26T08:16:01;101637.41;;;25.47;43.73
77975;BME280;67164;51.202;0.278;2023-06-26T08:18:27;101642.58;;;25.55;43.62
77975;BME280;67164;51.202;0.278;2023-06-26T08:20:52;101629.23;;;25.79;43.71
77975;BME280;67164;51.202;0.278;2023-06-26T08:23:18;101623.68;;;25.84;43.70
77975;BME280;67164;51.202;0.278;2023-06-26T08:25:44;101620.82;;;25.53;43.86
77975;BME280;67164;51.202;0.278;2023-06-26T08:28:10;101628.76;;;25.82;43.82
77975;BME280;67164;51.202;0.278;2023-06-26T08:30:35;101629.94;;;25.33;43.99
77975;BME280;67164;51.202;0.278;2023-06-26T08:33:01;101634.28;;;25.69;43.79
77975;BME280;67164;51.202;0.278;2023-06-26T08:35:28;101638.21;;;25.46;43.80
77975;BME280;67164;51.202;0.278;2023-06-26T08:37:53;101647.07;;;25.84;43.69
77975;BME280;67164;51.202;0.278;2023-06-26T08:40:18;101649.28;;;25.69;43.90
77975;BME280;67164;51.202;0.278;2023-06-26T08:42:44;101652.11;;;25.84;43.65
77975;BME280;67164;51.202;0.278;2023-06-26T08:45:10;101649.15;;;25.84;43.65
77975;BME280;67164;51.202;0.278;2023-06-26T08:47:37;101647.12;;;25.77;43.37
77975;BME280;67164;51.202;0.278;2023-06-26T08:50:08;101638.73;;;25.83;43.61
77975;BME280;67164;51.202;0.278;2023-06-26T08:52:30;101644.11;;;25.94;43.47
77975;BME280;67164;51.202;0.278;2023-06-26T08:54:56;101649.93;;;26.11;43.55
77975;BME280;67164;51.202;0.278;2023-06-26T08:57:20;101645.39;;;26.04;43.37
77975;BME280;67164;51.202;0.278;2023-06-26T08:59:46;101642.60;;;25.67;43.53
77975;BME280;67164;51.202;0.278;2023-06-26T09:02:11;101647.75;;;25.98;43.51
77975;BME280;67164;51.202;0.278;2023-06-26T09:04:37;101646.93;;;26.18;42.78
77975;BME280;67164;51.202;0.278;2023-06-26T09:07:02;101653.34;;;26.14;41.81
77975;BME280;67164;51.202;0.278;2023-06-26T09:09:29;101659.25;;;26.73;42.03
77975;BME280;67164;51.202;0.278;2023-06-26T09:11:54;101659.82;;;26.62;40.94
77975;BME280;67164;51.202;0.278;2023-06-26T09:14:20;101665.43;;;26.68;41.00
77975;BME280;67164;51.202;0.278;2023-06-26T09:16:46;101666.56;;;26.71;39.28
77975;BME280;67164;51.202;0.278;2023-06-26T09:19:11;101664.62;;;26.25;40.34
77975;BME280;67164;51.202;0.278;2023-06-26T09:21:37;101658.75;;;26.75;39.80
77975;BME280;67164;51.202;0.278;2023-06-26T09:24:02;101661.48;;;26.48;39.56
77975;BME280;67164;51.202;0.278;2023-06-26T09:26:28;101668.22;;;25.52;40.18
77975;BME280;67164;51.202;0.278;2023-06-26T09:28:53;101672.57;;;26.85;39.05
77975;BME280;67164;51.202;0.278;2023-06-26T09:31:18;101669.21;;;26.89;38.29
77975;BME280;67164;51.202;0.278;2023-06-26T09:33:49;101665.83;;;27.06;39.15
77975;BME280;67164;51.202;0.278;2023-06-26T09:36:18;101668.13;;;26.06;39.22
77975;BME280;67164;51.202;0.278;2023-06-26T09:38:36;101665.69;;;26.47;39.20
77975;BME280;67164;51.202;0.278;2023-06-26T09:41:02;101678.48;;;26.66;38.89
77975;BME280;67164;51.202;0.278;2023-06-26T09:43:27;101678.14;;;26.47;39.13
77975;BME280;67164;51.202;0.278;2023-06-26T09:45:53;101674.17;;;26.08;39.02
77975;BME280;67164;51.202;0.278;2023-06-26T09:48:19;101673.87;;;26.01;39.15
77975;BME280;67164;51.202;0.278;2023-06-26T09:50:45;101679.83;;;26.26;38.71
77975;BME280;67164;51.202;0.278;2023-06-26T09:53:11;101687.04;;;25.59;39.45
77975;BME280;67164;51.202;0.278;2023-06-26T09:55:36;101688.08;;;25.82;40.24
77975;BME280;67164;51.202;0.278;2023-06-26T09:58:02;101687.82;;;26.32;39.82
77975;BME280;67164;51.202;0.278;2023-06-26T10:00:28;101690.77;;;26.60;39.74
77975;BME280;67164;51.202;0.278;2023-06-26T10:02:53;101692.92;;;26.02;40.52
77975;BME280;67164;51.202;0.278;2023-06-26T10:05:19;101693.81;;;26.65;39.98
77975;BME280;67164;51.202;0.278;2023-06-26T10:07:45;101692.03;;;26.05;40.68
77975;BME280;67164;51.202;0.278;2023-06-26T10:10:11;101697.29;;;26.19;40.61
77975;BME280;67164;51.202;0.278;2023-06-26T10:12:36;101700.63;;;25.96;41.01
77975;BME280;67164;51.202;0.278;2023-06-26T10:15:03;101698.86;;;26.10;40.99
77975;BME280;67164;51.202;0.278;2023-06-26T10:17:32;101703.53;;;26.29;40.86
77975;BME280;67164;51.202;0.278;2023-06-26T10:19:54;101699.40;;;26.35;40.68
77975;BME280;67164;51.202;0.278;2023-06-26T10:22:20;101700.15;;;26.39;40.59
77975;BME280;67164;51.202;0.278;2023-06-26T10:24:47;101701.19;;;26.17;41.02
77975;BME280;67164;51.202;0.278;2023-06-26T10:27:15;101704.37;;;26.10;41.17
77975;BME280;67164;51.202;0.278;2023-06-26T10:29:37;101704.97;;;26.01;41.84
77975;BME280;67164;51.202;0.278;2023-06-26T10:32:04;101702.85;;;26.18;41.41
77975;BME280;67164;51.202;0.278;2023-06-26T10:34:28;101701.18;;;25.61;42.20
77975;BME280;67164;51.202;0.278;2023-06-26T10:37:00;101708.59;;;26.12;41.38
77975;BME280;67164;51.202;0.278;2023-06-26T10:39:20;101716.25;;;26.08;41.71
77975;BME280;67164;51.202;0.278;2023-06-26T10:41:46;101715.24;;;25.75;42.09
77975;BME280;67164;51.202;0.278;2023-06-26T10:44:17;101718.24;;;25.89;42.68
77975;BME280;67164;51.202;0.278;2023-06-26T10:46:52;101713.27;;;26.01;42.39
77975;BME280;67164;51.202;0.278;2023-06-26T10:49:03;101714.99;;;26.06;42.31
77975;BME280;67164;51.202;0.278;2023-06-26T10:51:29;101713.10;;;25.71;42.54
77975;BME280;67164;51.202;0.278;2023-06-26T10:53:55;101722.28;;;26.10;42.42
77975;BME280;67164;51.202;0.278;2023-06-26T10:56:21;101716.33;;;26.16;42.30
77975;BME280;67164;51.202;0.278;2023-06-26T10:58:48;101711.21;;;25.94;42.69
77975;BME280;67164;51.202;0.278;2023-06-26T11:01:20;101714.84;;;26.10;42.46
77975;BME280;67164;51.202;0.278;2023-06-26T11:03:38;101712.08;;;25.80;42.90
77975;BME280;67164;51.202;0.278;2023-06-26T11:06:09;101710.41;;;26.17;42.55
77975;BME280;67164;51.202;0.278;2023-06-26T11:11:00;101709.56;;;25.70;42.62
77975;BME280;67164;51.202;0.278;2023-06-26T11:13:21;101719.54;;;26.65;41.75
77975;BME280;67164;51.202;0.278;2023-06-26T11:15:47;101720.67;;;26.90;41.40
77975;BME280;67164;51.202;0.278;2023-06-26T11:18:13;101718.30;;;26.66;41.33
77975;BME280;67164;51.202;0.278;2023-06-26T11:20:39;101719.35;;;27.09;41.08
77975;BME280;67164;51.202;0.278;2023-06-26T11:23:04;101724.36;;;26.14;42.25
77975;BME280;67164;51.202;0.278;2023-06-26T11:25:30;101725.71;;;26.19;42.68
77975;BME280;67164;51.202;0.278;2023-06-26T11:27:56;101720.50;;;25.70;43.18
77975;BME280;67164;51.202;0.278;2023-06-26T11:30:25;101720.57;;;26.01;43.00
77975;BME280;67164;51.202;0.278;2023-06-26T11:32:47;101723.24;;;25.70;43.08
77975;BME280;67164;51.202;0.278;2023-06-26T11:35:13;101732.03;;;25.89;43.27
77975;BME280;67164;51.202;0.278;2023-06-26T11:37:39;101724.39;;;25.92;43.08
77975;BME280;67164;51.202;0.278;2023-06-26T11:40:16;101734.63;;;26.25;42.66
77975;BME280;67164;51.202;0.278;2023-06-26T11:42:30;101740.38;;;26.25;42.23
77975;BME280;67164;51.202;0.278;2023-06-26T11:44:56;101744.48;;;26.50;41.86
77975;BME280;67164;51.202;0.278;2023-06-26T11:47:22;101746.85;;;26.45;42.16
77975;BME280;67164;51.202;0.278;2023-06-26T11:49:53;101746.49;;;26.55;41.91
77975;BME280;67164;51.202;0.278;2023-06-26T11:52:16;101753.26;;;26.52;41.86
77975;BME280;67164;51.202;0.278;2023-06-26T11:54:40;101755.66;;;26.11;42.01
77975;BME280;67164;51.202;0.278;2023-06-26T11:57:05;101756.46;;;26.37;41.63
77975;BME280;67164;51.202;0.278;2023-06-26T11:59:34;101757.07;;;26.42;41.56
77975;BME280;67164;51.202;0.278;2023-06-26T12:01:57;101758.68;;;26.50;41.79
77975;BME280;67164;51.202;0.278;2023-06-26T12:04:23;101761.68;;;26.24;41.76
77975;BME280;67164;51.202;0.278;2023-06-26T12:06:51;101763.47;;;26.31;41.92
77975;BME280;67164;51.202;0.278;2023-06-26T12:09:15;101767.87;;;26.54;41.62
77975;BME280;67164;51.202;0.278;2023-06-26T12:11:41;101776.06;;;26.63;41.11
77975;BME280;67164;51.202;0.278;2023-06-26T12:14:06;101776.95;;;26.56;41.23
77975;BME280;67164;51.202;0.278;2023-06-26T12:16:33;101772.03;;;26.70;40.89
77975;BME280;67164;51.202;0.278;2023-06-26T12:18:58;101774.10;;;26.81;40.64
77975;BME280;67164;51.202;0.278;2023-06-26T12:21:43;101777.19;;;26.70;41.03
77975;BME280;67164;51.202;0.278;2023-06-26T12:23:49;101776.99;;;26.51;40.93
77975;BME280;67164;51.202;0.278;2023-06-26T12:26:18;101774.16;;;26.58;40.75
77975;BME280;67164;51.202;0.278;2023-06-26T12:28:41;101775.30;;;26.80;40.42
77975;BME280;67164;51.202;0.278;2023-06-26T12:31:13;101777.71;;;26.94;40.52
77975;BME280;67164;51.202;0.278;2023-06-26T12:33:32;101777.56;;;26.99;40.42
77975;BME280;67164;51.202;0.278;2023-06-26T12:35:58;101773.35;;;26.58;40.59
77975;BME280;67164;51.202;0.278;2023-06-26T12:38:23;101767.74;;;26.47;41.29
77975;BME280;67164;51.202;0.278;2023-06-26T12:40:49;101770.36;;;25.96;42.43
77975;BME280;67164;51.202;0.278;2023-06-26T12:43:31;101767.27;;;25.78;42.82
77975;BME280;67164;51.202;0.278;2023-06-26T12:45:41;101763.30;;;25.57;42.80